Time;durP1;ratioP1;P1;durP2;ratioP2;P2;SDS_P1;SDS_P2;PMS_P1;PMS_P2;Temp;Humidity;BMP_temperature;BMP_pressure;BME280_temperature;BME280_humidity;BME280_pressure;Samples;Min_cycle;Max_cycle;Signal;HPM_P1;HPM_P2
2022/05/03 00:02:04;;;;;;;4.10;2.03;;;;;;;8.60;72.89;101959.13;5016795;28;20378;-40
2022/05/03 00:04:33;;;;;;;2.72;1.83;;;;;;;8.54;73.83;101959.72;5016762;28;20022;-39
2022/05/03 00:07:12;;;;;;;2.55;2.00;;;;;;;8.49;73.94;101952.44;5017169;28;20030;-39
2022/05/03 00:09:55;;;;;;;3.22;2.00;;;;;;;8.38;74.58;101946.63;5017055;28;20022;-39
2022/05/03 00:12:26;;;;;;;;;;;;;;;8.31;74.04;101947.19;5017247;28;20033;-39
2022/05/03 00:14:55;;;;;;;3.17;1.83;;;;;;;8.38;73.21;101946.63;5016795;28;19917;-39
2022/05/03 00:17:22;;;;;;;2.35;1.70;;;;;;;8.42;73.07;101950.56;5016752;28;20026;-39
2022/05/03 00:19:48;;;;;;;3.13;1.85;;;;;;;8.36;73.37;101950.16;5016740;28;20026;-39
2022/05/03 00:22:14;;;;;;;5.55;2.00;;;;;;;8.32;73.31;101948.03;5016882;28;20105;-40
2022/05/03 00:24:41;;;;;;;3.22;1.90;;;;;;;8.25;73.37;101946.97;5016823;28;20029;-39
2022/05/03 00:27:06;;;;;;;3.60;1.88;;;;;;;8.27;73.19;101953.59;4998581;28;20114;-39
2022/05/03 00:29:33;;;;;;;2.28;1.70;;;;;;;8.21;73.61;101941.28;5016550;28;20034;-39
2022/05/03 00:32:01;;;;;;;2.33;1.75;;;;;;;8.14;74.20;101947.94;5016226;28;20030;-39
2022/05/03 00:34:28;;;;;;;3.00;1.70;;;;;;;8.14;74.27;101953.09;5016095;28;20021;-41
2022/05/03 00:36:53;;;;;;;2.47;1.73;;;;;;;8.17;74.72;101952.84;5015885;28;20050;-40
2022/05/03 00:39:18;;;;;;;2.17;1.58;;;;;;;8.09;73.96;101950.97;5016357;28;20072;-39
2022/05/03 00:41:54;;;;;;;3.00;1.75;;;;;;;7.97;74.84;101957.25;5016369;28;20353;-39
2022/05/03 00:47:27;;;;;;;3.78;1.70;;;;;;;8.06;74.02;101958.97;5016166;28;20092;-39
2022/05/03 00:50:07;;;;;;;3.25;2.00;;;;;;;8.05;73.75;101952.19;5015860;28;20416;-39
2022/05/03 00:53:00;;;;;;;6.43;1.88;;;;;;;7.96;73.85;101959.94;5015783;28;20029;-41
2022/05/03 00:55:34;;;;;;;2.53;1.63;;;;;;;7.87;74.01;101951.31;5008361;28;20473;-38
2022/05/03 00:58:09;;;;;;;3.80;1.85;;;;;;;7.87;74.25;101951.31;5016111;28;20095;-38
2022/05/03 01:00:42;;;;;;;3.92;2.20;;;;;;;7.83;74.58;101948.22;5015645;28;20036;-39
2022/05/03 01:03:11;;;;;;;3.03;2.03;;;;;;;7.78;74.74;101941.88;5015739;28;20476;-39
2022/05/03 01:05:39;;;;;;;2.55;1.80;;;;;;;7.68;75.17;101947.00;5015799;28;20105;-38
2022/05/03 01:08:07;;;;;;;3.08;2.00;;;;;;;7.73;75.43;101937.13;5015582;28;20034;-39
2022/05/03 01:10:36;;;;;;;4.38;1.95;;;;;;;7.75;75.24;101947.28;4997875;28;20033;-38
2022/05/03 01:13:18;;;;;;;3.85;2.10;;;;;;;7.75;75.89;101944.72;5015505;28;20053;-39
2022/05/03 01:15:51;;;;;;;4.50;2.00;;;;;;;7.66;75.84;101941.22;5015390;28;20046;-41
2022/05/03 01:18:30;;;;;;;3.10;2.10;;;;;;;7.62;76.21;101940.69;5015872;28;20433;-41
2022/05/03 01:21:11;;;;;;;3.40;2.30;;;;;;;7.68;75.93;101926.44;5015617;28;20048;-43
2022/05/03 01:23:50;;;;;;;3.38;2.10;;;;;;;7.76;76.05;101942.00;5015329;28;20029;-40
2022/05/03 01:27:00;;;;;;;3.88;1.98;;;;;;;7.59;76.70;101938.38;5015417;28;20080;-40
2022/05/03 01:29:32;;;;;;;5.35;2.35;;;;;;;7.64;76.80;101937.97;5015888;28;20076;-39
2022/05/03 01:32:00;;;;;;;3.83;2.30;;;;;;;7.65;76.43;101932.69;5015741;28;20100;-40
2022/05/03 01:34:28;;;;;;;3.50;2.30;;;;;;;7.61;76.44;101933.09;5015042;28;20072;-39
2022/05/03 01:37:05;;;;;;;4.25;2.50;;;;;;;7.61;76.32;101926.19;5015566;28;20026;-39
2022/05/03 01:40:03;;;;;;;4.65;2.42;;;;;;;7.38;75.93;101894.03;5015224;28;20052;-40
2022/05/03 01:42:33;;;;;;;3.92;2.47;;;;;;;7.35;76.55;101935.44;4997950;28;20365;-40
2022/05/03 01:45:05;;;;;;;3.17;2.22;;;;;;;7.44;76.85;101935.41;5014877;28;20022;-39
2022/05/03 01:47:34;;;;;;;3.47;2.42;;;;;;;7.49;76.65;101929.88;5015129;28;20033;-40
2022/05/03 01:50:21;;;;;;;4.97;2.53;;;;;;;7.40;76.92;101930.72;5013994;28;20030;-39
2022/05/03 01:53:22;;;;;;;3.67;2.35;;;;;;;7.36;76.63;101931.91;5015258;28;20044;-40
2022/05/03 01:56:20;;;;;;;4.28;2.40;;;;;;;7.21;77.06;101934.91;5015252;28;20377;-40
2022/05/03 01:59:04;;;;;;;3.70;2.40;;;;;;;7.26;77.74;101931.94;5015184;28;20107;-39
2022/05/03 02:01:35;;;;;;;3.70;2.42;;;;;;;7.27;76.79;101932.75;4996902;28;20425;-40
2022/05/03 02:04:33;;;;;;;3.97;2.42;;;;;;;7.29;76.71;101928.28;4996958;28;20040;-40
2022/05/03 02:07:23;;;;;;;4.10;2.53;;;;;;;7.21;77.00;101936.66;5008708;28;20493;-40
2022/05/03 02:10:06;;;;;;;3.72;2.33;;;;;;;7.14;77.21;101926.13;5014650;28;20465;-40
2022/05/03 02:12:33;;;;;;;;;;;;;;;7.16;77.07;101939.66;5015006;28;20026;-40
2022/05/03 02:15:11;;;;;;;4.90;2.20;;;;;;;7.07;77.58;101931.94;5014235;28;19967;-39
2022/05/03 02:17:54;;;;;;;4.72;2.30;;;;;;;7.08;76.91;101933.56;5014516;28;20013;-39
2022/05/03 02:20:36;;;;;;;5.07;2.70;;;;;;;6.80;76.63;101906.91;4996617;28;20034;-40
2022/05/03 02:23:15;;;;;;;5.45;2.85;;;;;;;6.91;77.22;101929.91;5014748;28;20469;-40
2022/05/03 02:25:59;;;;;;;4.75;2.80;;;;;;;6.86;76.98;101926.94;4997239;28;20026;-40
2022/05/03 02:28:36;;;;;;;5.22;3.40;;;;;;;6.80;76.93;101933.41;5014443;28;20493;-40
2022/05/03 02:31:07;;;;;;;6.65;3.10;;;;;;;6.76;77.07;101916.63;5014672;28;20029;-39
2022/05/03 02:33:37;;;;;;;4.32;2.67;;;;;;;6.81;77.23;101931.66;5014056;28;20100;-40
2022/05/03 02:36:03;;;;;;;4.72;2.80;;;;;;;6.68;77.60;101927.59;5014590;28;20346;-39
2022/05/03 02:38:56;;;;;;;5.15;2.72;;;;;;;6.82;77.87;101928.97;5014275;28;20026;-40
2022/05/03 02:41:24;;;;;;;6.57;2.80;;;;;;;6.86;77.37;101925.16;5014038;28;20026;-40
2022/05/03 02:43:50;;;;;;;6.25;2.60;;;;;;;6.72;77.81;101926.38;5014536;28;20457;-40
2022/05/03 02:46:24;;;;;;;4.70;2.88;;;;;;;6.74;78.00;101924.50;5013787;28;20018;-40
2022/05/03 02:49:04;;;;;;;5.53;2.65;;;;;;;6.74;77.80;101927.06;5014397;28;20030;-39
2022/05/03 02:51:45;;;;;;;6.80;2.80;;;;;;;6.76;77.89;101925.19;5013864;28;20025;-41
2022/05/03 02:54:29;;;;;;;5.03;2.65;;;;;;;6.88;77.62;101920.72;5014354;28;20053;-40
2022/05/03 02:57:12;;;;;;;4.28;2.65;;;;;;;6.83;77.60;101919.50;5013759;28;20030;-41
2022/05/03 03:02:48;;;;;;;4.68;3.05;;;;;;;6.80;77.65;101915.44;5014047;28;20083;-40
2022/05/03 03:05:19;;;;;;;4.45;3.00;;;;;;;6.73;77.96;101912.59;5013971;28;20461;-39
2022/05/03 03:07:52;;;;;;;5.57;3.38;;;;;;;6.68;77.91;101924.22;5013794;28;20029;-40
2022/05/03 03:10:22;;;;;;;4.80;3.38;;;;;;;6.60;78.58;101911.22;5014123;28;20033;-40
2022/05/03 03:12:56;;;;;;;5.50;3.88;;;;;;;6.58;78.35;101908.78;4995979;28;20084;-40
2022/05/03 03:15:28;;;;;;;7.95;3.38;;;;;;;6.62;78.74;101912.72;5013538;28;20060;-40
2022/05/03 03:17:55;;;;;;;5.10;3.53;;;;;;;6.70;78.75;101912.03;5013794;28;20464;-40
2022/05/03 03:20:26;;;;;;;6.05;3.90;;;;;;;6.48;78.58;101916.47;5013513;28;20022;-39
2022/05/03 03:22:51;;;;;;;5.25;3.63;;;;;;;6.44;79.47;101914.28;5013803;28;20029;-39
2022/05/03 03:25:19;;;;;;;6.20;3.80;;;;;;;6.37;79.57;101913.22;5013323;28;20099;-40
2022/05/03 03:27:47;;;;;;;5.78;3.78;;;;;;;6.43;79.04;101913.47;5013628;28;20034;-39
2022/05/03 03:30:14;;;;;;;6.80;3.50;;;;;;;6.49;78.88;101912.13;5013598;28;20053;-51
2022/05/03 03:32:44;;;;;;;5.88;3.55;;;;;;;6.42;78.88;101924.72;5013722;28;20026;-38
2022/05/03 03:35:12;;;;;;;5.47;3.33;;;;;;;6.33;79.52;101921.16;5013300;28;20121;-39
2022/05/03 03:37:42;;;;;;;6.15;3.65;;;;;;;6.52;79.19;101922.16;4996934;28;20363;-39
2022/05/03 03:40:08;;;;;;;5.20;3.25;;;;;;;6.54;78.48;101913.38;5013234;28;20079;-41
2022/05/03 03:42:33;;;;;;;4.78;3.58;;;;;;;6.42;78.81;101914.44;4995717;28;20069;-38
2022/05/03 03:45:00;;;;;;;7.55;4.10;;;;;;;6.29;79.36;101914.66;5013828;28;20454;-39
2022/05/03 03:47:28;;;;;;;7.82;4.60;;;;;;;6.31;79.41;101912.78;5013457;28;20022;-39
2022/05/03 03:49:56;;;;;;;9.65;4.60;;;;;;;6.38;79.15;101912.25;4996262;28;20026;-39
2022/05/03 03:52:23;;;;;;;7.25;4.85;;;;;;;6.51;78.75;101916.22;5013164;28;20041;-39
2022/05/03 03:54:49;;;;;;;8.88;5.20;;;;;;;6.37;79.81;101914.00;5013172;28;20037;-39
2022/05/03 03:57:15;;;;;;;8.60;5.15;;;;;;;6.37;78.99;101915.78;4995540;28;20029;-39
2022/05/03 03:59:41;;;;;;;9.60;6.40;;;;;;;6.31;80.51;101920.47;4979743;28;20033;-38
2022/05/03 04:02:06;;;;;;;10.43;6.80;;;;;;;6.26;80.99;101914.91;5013299;28;20380;-39
2022/05/03 04:04:37;;;;;;;11.20;6.75;;;;;;;6.38;81.35;101927.66;5013342;28;20017;-39
2022/05/03 04:07:03;;;;;;;12.43;7.55;;;;;;;6.34;81.58;101924.53;5013262;28;20413;-38
2022/05/03 04:09:28;;;;;;;14.07;7.80;;;;;;;6.40;80.67;101918.06;5013730;28;20029;-39
2022/05/03 04:11:54;;;;;;;11.30;7.18;;;;;;;6.43;81.39;101918.63;5013310;28;20068;-38
2022/05/03 04:14:19;;;;;;;13.50;7.65;;;;;;;6.67;80.89;101922.56;5016905;28;20032;-40
2022/05/03 04:16:45;;;;;;;12.85;8.27;;;;;;;6.65;80.30;101914.22;5016454;28;20547;-39
2022/05/03 04:19:12;;;;;;;13.90;9.00;;;;;;;6.53;81.68;101913.50;5016847;28;20075;-39
2022/05/03 04:21:38;;;;;;;16.80;9.68;;;;;;;6.59;82.15;101907.84;5016489;28;20018;-39
2022/05/03 04:24:04;;;;;;;19.10;10.63;;;;;;;6.58;82.32;101913.91;5016624;28;20036;-38
2022/05/03 04:26:29;;;;;;;17.20;10.95;;;;;;;6.45;82.70;101916.75;4999041;28;20030;-39
2022/05/03 04:28:59;;;;;;;17.70;10.32;;;;;;;6.51;82.23;101921.34;5016281;28;20412;-38
2022/05/03 04:31:26;;;;;;;14.02;9.18;;;;;;;6.29;82.46;101885.59;5017086;28;20112;-39
2022/05/03 04:33:52;;;;;;;18.73;9.45;;;;;;;6.58;82.36;101913.91;5016511;28;20584;-38
2022/05/03 04:36:17;;;;;;;14.80;9.35;;;;;;;6.65;82.03;101917.59;5016401;28;20101;-39
2022/05/03 04:38:42;;;;;;;17.27;9.65;;;;;;;6.71;81.86;101917.06;5014865;28;20064;-39
2022/05/03 04:41:07;;;;;;;14.98;9.48;;;;;;;6.84;81.09;101911.63;5016651;28;20461;-39
2022/05/03 04:43:33;;;;;;;17.95;9.48;;;;;;;6.78;81.32;101912.97;5016116;28;20175;-39
2022/05/03 04:46:00;;;;;;;15.60;9.98;;;;;;;7.00;81.47;101911.91;5016192;28;20037;-40
2022/05/03 04:48:25;;;;;;;16.38;10.20;;;;;;;7.05;80.90;101916.66;5016522;28;20457;-39
2022/05/03 04:50:50;;;;;;;20.08;10.20;;;;;;;7.23;81.05;101909.88;5016514;28;20026;-40
2022/05/03 04:53:16;;;;;;;19.60;10.13;;;;;;;7.30;80.38;101917.03;5016174;28;20121;-40
2022/05/03 04:55:42;;;;;;;17.40;10.05;;;;;;;7.23;80.87;101914.22;4998499;28;20510;-40
2022/05/03 04:58:07;;;;;;;23.02;11.23;;;;;;;7.45;80.68;101919.06;5015781;28;20034;-39
2022/05/03 05:00:34;;;;;;;16.02;9.90;;;;;;;7.52;80.02;101916.72;5016110;28;20384;-47
2022/05/03 05:02:59;;;;;;;21.20;10.30;;;;;;;7.53;79.72;101926.06;5016030;28;20057;-40
2022/05/03 05:05:25;;;;;;;16.05;10.13;;;;;;;7.73;80.05;101926.03;5016003;28;20030;-40
2022/05/03 05:07:50;;;;;;;16.60;10.55;;;;;;;7.87;79.00;101928.94;5015561;28;20026;-40
2022/05/03 05:10:24;;;;;;;17.08;9.85;;;;;;;8.05;78.99;101923.06;4997921;28;20025;-39
2022/05/03 05:12:56;;;;;;;15.85;10.55;;;;;;;8.12;78.64;101930.09;4999634;28;20468;-40
2022/05/03 05:15:25;;;;;;;19.90;11.25;;;;;;;8.32;78.66;101935.94;5015585;28;20409;-40
2022/05/03 05:17:55;;;;;;;20.02;11.18;;;;;;;8.52;77.50;101930.72;5015958;28;20080;-40
2022/05/03 05:20:21;;;;;;;18.30;10.70;;;;;;;8.80;76.31;101928.88;5015613;28;20025;-39
2022/05/03 05:22:46;;;;;;;20.42;11.30;;;;;;;9.05;76.38;101935.09;5015300;28;20033;-39
2022/05/03 05:25:13;;;;;;;18.88;11.65;;;;;;;9.08;75.70;101939.13;5014531;28;20030;-39
2022/05/03 05:27:38;;;;;;;20.10;11.60;;;;;;;8.90;76.56;101903.88;5015102;28;20029;-39
2022/05/03 05:30:06;;;;;;;20.42;11.93;;;;;;;9.19;76.69;101937.13;5015165;28;20026;-40
2022/05/03 05:32:31;;;;;;;18.42;11.77;;;;;;;9.31;78.08;101939.47;5015163;28;20036;-39
2022/05/03 05:34:57;;;;;;;19.88;11.80;;;;;;;9.27;78.03;101944.13;4997821;28;20029;-39
2022/05/03 05:37:22;;;;;;;19.67;12.32;;;;;;;9.44;77.62;101948.44;5015091;28;20385;-39
2022/05/03 05:39:47;;;;;;;23.00;12.70;;;;;;;9.70;76.31;101940.72;5015288;28;20030;-40
2022/05/03 05:42:13;;;;;;;22.02;13.32;;;;;;;9.87;76.06;101941.63;5015536;28;20044;-40
2022/05/03 05:44:38;;;;;;;19.90;12.25;;;;;;;9.98;76.64;101939.72;5015250;28;20060;-39
2022/05/03 05:47:07;;;;;;;20.50;12.43;;;;;;;10.15;76.19;101937.03;5015054;28;20029;-40
2022/05/03 05:49:33;;;;;;;21.27;13.15;;;;;;;10.20;77.50;101936.59;4997204;28;20488;-46
2022/05/03 05:54:43;;;;;;;22.23;14.23;;;;;;;10.57;76.94;101936.22;5015587;28;20044;-40
2022/05/03 05:57:08;;;;;;;25.60;14.68;;;;;;;10.63;77.42;101941.75;5014707;28;20079;-41
2022/05/03 05:59:34;;;;;;;28.88;15.65;;;;;;;10.79;76.57;101934.03;5014529;28;20030;-41
2022/05/03 06:01:59;;;;;;;28.17;15.88;;;;;;;10.87;76.70;101941.75;5013820;28;20465;-40
2022/05/03 06:04:27;;;;;;;25.23;16.48;;;;;;;10.96;76.40;101940.00;5012538;28;20358;-41
2022/05/03 06:06:53;;;;;;;27.95;16.40;;;;;;;11.13;76.22;101941.63;5013252;28;20029;-41
2022/05/03 06:09:19;;;;;;;26.90;17.35;;;;;;;11.07;76.76;101942.25;5013107;28;20029;-41
2022/05/03 06:11:44;;;;;;;28.58;17.17;;;;;;;10.98;76.83;101941.47;5013888;28;20460;-41
2022/05/03 06:14:09;;;;;;;27.75;16.67;;;;;;;10.81;77.96;101940.63;5013862;28;20034;-40
2022/05/03 06:16:47;;;;;;;27.60;17.15;;;;;;;11.00;77.90;101943.91;5014113;28;20050;-40
2022/05/03 06:19:12;;;;;;;37.35;17.50;;;;;;;11.01;78.63;101948.09;5014589;28;20026;-41
2022/05/03 06:21:37;;;;;;;31.35;17.73;;;;;;;11.13;78.25;101944.19;5014626;28;20026;-41
2022/05/03 06:24:03;;;;;;;29.92;18.25;;;;;;;11.32;78.14;101937.09;5014282;28;20036;-41
2022/05/03 06:26:28;;;;;;;32.88;18.95;;;;;;;11.61;77.28;101939.94;4995639;28;20041;-41
2022/05/03 06:28:53;;;;;;;31.35;18.75;;;;;;;11.78;76.46;101948.50;5014101;28;20378;-41
2022/05/03 06:31:21;;;;;;;31.60;18.65;;;;;;;11.81;76.68;101937.00;5014405;28;20107;-41
2022/05/03 06:33:46;;;;;;;29.40;19.10;;;;;;;11.93;76.79;101940.88;5014090;28;20021;-41
2022/05/03 06:36:15;;;;;;;31.63;19.70;;;;;;;12.13;76.19;101949.06;5014003;28;20568;-42
2022/05/03 06:38:40;;;;;;;35.58;19.85;;;;;;;12.10;76.34;101947.59;5014308;28;20021;-41
2022/05/03 06:41:05;;;;;;;35.58;21.10;;;;;;;12.04;77.07;101945.69;5014269;28;20416;-40
2022/05/03 06:43:31;;;;;;;35.72;20.58;;;;;;;12.37;76.37;101946.34;5014220;28;20041;-41
2022/05/03 06:45:56;;;;;;;32.55;20.33;;;;;;;12.21;76.87;101950.81;5013758;28;20026;-41
2022/05/03 06:48:21;;;;;;;37.03;21.50;;;;;;;12.09;77.54;101927.84;5013751;28;20376;-41
2022/05/03 06:50:47;;;;;;;33.47;21.27;;;;;;;12.41;77.11;101952.00;5013761;28;20037;-41
2022/05/03 06:53:12;;;;;;;30.33;20.58;;;;;;;12.45;76.92;101955.06;5014181;28;20030;-39
2022/05/03 06:55:37;;;;;;;37.03;22.25;;;;;;;12.42;76.56;101963.97;5013988;28;20031;-40
2022/05/03 06:58:03;;;;;;;34.35;22.65;;;;;;;12.52;76.17;101963.78;5013640;28;20080;-40
2022/05/03 07:00:28;;;;;;;36.13;21.77;;;;;;;12.49;77.19;101964.13;5013963;28;20029;-39
2022/05/03 07:02:53;;;;;;;35.92;22.60;;;;;;;12.45;76.87;101960.25;5014245;28;20026;-40
2022/05/03 07:05:19;;;;;;;37.63;22.67;;;;;;;12.45;77.58;101971.41;5013908;28;20033;-40
2022/05/03 07:07:44;;;;;;;37.80;22.42;;;;;;;12.45;77.86;101973.19;5013772;28;20025;-40
2022/05/03 07:10:09;;;;;;;37.47;22.58;;;;;;;12.39;77.70;101970.31;5013697;28;20029;-40
2022/05/03 07:12:34;;;;;;;34.80;23.05;;;;;;;12.64;77.04;101972.78;5013521;28;20492;-40
2022/05/03 07:15:01;;;;;;;41.60;23.67;;;;;;;12.77;76.61;101964.41;5013597;28;20057;-40
2022/05/03 07:22:55;;;;;;;36.25;22.20;;;;;;;13.27;74.02;101973.50;5013305;28;20064;-39
2022/05/03 07:25:21;;;;;;;36.47;23.27;;;;;;;13.29;74.14;101971.50;5013670;28;20029;-40
2022/05/03 07:27:47;;;;;;;39.55;22.63;;;;;;;13.25;73.74;101965.03;5013630;28;20113;-40
2022/05/03 07:30:13;;;;;;;35.80;22.58;;;;;;;16.05;64.14;101973.97;5013733;28;20191;-41
2022/05/03 07:32:39;;;;;;;36.58;22.15;;;;;;;18.65;55.83;101970.94;4995813;28;20091;-40
2022/05/03 07:35:04;;;;;;;29.27;19.80;;;;;;;18.82;54.16;101960.00;5013694;28;20025;-41
2022/05/03 07:37:29;;;;;;;33.55;20.60;;;;;;;18.63;54.42;101972.16;5013706;28;20381;-41
2022/05/03 07:39:55;;;;;;;29.77;19.42;;;;;;;18.64;54.21;101969.34;5013319;28;20022;-42
2022/05/03 07:42:20;;;;;;;30.63;20.33;;;;;;;16.43;59.45;101964.69;4996518;28;20523;-41
2022/05/03 07:44:45;;;;;;;31.27;20.55;;;;;;;15.81;62.45;101968.25;5013540;28;20022;-41
2022/05/03 07:47:10;;;;;;;27.42;18.65;;;;;;;14.96;64.43;101966.59;5013646;28;20116;-41
2022/05/03 07:49:36;;;;;;;31.25;19.08;;;;;;;14.45;66.69;101964.88;5017665;28;20022;-40
2022/05/03 07:52:01;;;;;;;34.95;20.55;;;;;;;14.33;67.88;101969.75;5017022;28;20025;-41
2022/05/03 07:54:26;;;;;;;27.98;19.23;;;;;;;14.83;67.07;101965.50;5017197;28;20108;-40
2022/05/03 07:56:52;;;;;;;27.95;17.42;;;;;;;14.66;66.29;101975.34;5016905;28;20459;-41
2022/05/03 07:59:17;;;;;;;27.83;16.98;;;;;;;14.84;66.19;101968.91;4999288;28;20426;-39
2022/05/03 08:01:42;;;;;;;27.63;17.17;;;;;;;14.71;66.25;101968.78;5017086;28;20034;-45
2022/05/03 08:04:08;;;;;;;30.52;18.35;;;;;;;14.83;66.41;101975.09;5016793;28;20056;-51
2022/05/03 08:06:34;;;;;;;28.83;18.05;;;;;;;14.73;67.21;101970.22;5016972;28;20026;-47
2022/05/03 08:09:00;;;;;;;31.50;19.48;;;;;;;14.55;67.84;101978.41;4999092;28;20029;-47
2022/05/03 08:11:25;;;;;;;32.90;18.70;;;;;;;14.52;67.67;101984.00;5016618;28;20022;-45
2022/05/03 08:13:52;;;;;;;31.20;20.33;;;;;;;14.46;67.84;101984.69;5016546;28;20026;-45
2022/05/03 08:16:22;;;;;;;33.15;20.60;;;;;;;14.60;69.29;101986.47;5016402;28;20045;-46
2022/05/03 08:18:48;;;;;;;30.92;20.67;;;;;;;14.68;68.24;101995.19;5016525;28;20109;-46
2022/05/03 08:21:14;;;;;;;33.20;21.63;;;;;;;14.33;68.68;101989.75;5016402;28;20064;-46
2022/05/03 08:23:39;;;;;;;36.92;21.35;;;;;;;14.55;68.76;101998.44;5016627;28;20460;-46
2022/05/03 08:26:05;;;;;;;31.60;19.90;;;;;;;14.32;69.81;101988.13;5016735;28;20030;-46
2022/05/03 08:28:31;;;;;;;32.88;20.58;;;;;;;14.43;69.07;101996.25;5016235;28;20030;-46
2022/05/03 08:30:57;;;;;;;32.90;20.48;;;;;;;14.39;69.17;101989.03;5016449;28;20029;-46
2022/05/03 08:33:23;;;;;;;37.67;21.73;;;;;;;14.43;69.81;101991.06;5016416;28;20030;-46
2022/05/03 08:35:48;;;;;;;37.55;21.52;;;;;;;14.33;70.05;102000.16;5016970;28;20077;-47
2022/05/03 08:43:43;;;;;;;33.65;21.17;;;;;;;14.49;69.41;101996.53;5016837;28;20080;-46
2022/05/03 08:46:09;;;;;;;40.75;23.30;;;;;;;14.27;69.63;101995.66;5016174;28;20050;-48
2022/05/03 08:48:37;;;;;;;37.55;23.70;;;;;;;14.36;70.71;101999.78;5016827;28;20022;-46
2022/05/03 08:51:03;;;;;;;45.45;26.38;;;;;;;14.29;70.83;102002.28;5016089;28;20030;-46
2022/05/03 08:53:29;;;;;;;42.28;25.63;;;;;;;14.21;71.57;101999.78;5015854;28;20030;-45
2022/05/03 08:55:54;;;;;;;47.25;26.48;;;;;;;14.38;71.19;102005.59;4998171;28;20469;-45
2022/05/03 08:58:21;;;;;;;45.78;27.77;;;;;;;14.51;70.84;102007.56;5015532;28;20029;-46
2022/05/03 09:00:47;;;;;;;47.83;25.67;;;;;;;14.69;70.19;102008.00;5015928;28;20034;-45
2022/05/03 09:03:14;;;;;;;46.53;27.17;;;;;;;14.86;68.96;102000.75;5015666;28;20034;-50
2022/05/03 09:05:40;;;;;;;47.90;26.60;;;;;;;14.76;68.90;101998.47;5015868;28;20109;-46
2022/05/03 09:08:09;;;;;;;45.72;27.15;;;;;;;14.76;68.93;102006.28;5015524;28;20444;-46
2022/05/03 09:10:37;;;;;;;45.72;26.83;;;;;;;14.68;69.68;102008.19;5015654;28;20072;-46
2022/05/03 09:13:18;;;;;;;44.00;27.33;;;;;;;14.72;69.06;101999.00;5015678;28;20465;-46
2022/05/03 09:15:55;;;;;;;52.00;27.27;;;;;;;14.93;68.75;102001.59;5015321;28;20394;-46
2022/05/03 09:18:22;;;;;;;45.28;25.73;;;;;;;14.81;69.35;102009.09;4998573;28;20056;-46
2022/05/03 09:23:47;;;;;;;41.95;25.13;;;;;;;14.64;69.28;102007.72;5015592;28;20084;-46
2022/05/03 09:26:15;;;;;;;44.70;26.25;;;;;;;14.93;68.83;102003.41;5015025;28;20030;-46
2022/05/03 09:28:52;;;;;;;41.20;25.10;;;;;;;14.87;69.32;102008.41;5013022;28;20022;-45
2022/05/03 09:31:34;;;;;;;48.53;27.25;;;;;;;14.95;68.84;101998.84;4980508;28;20040;-46
2022/05/03 09:34:03;;;;;;;47.97;27.08;;;;;;;15.09;68.11;101995.38;4997458;28;20017;-49
2022/05/03 09:36:40;;;;;;;43.42;26.17;;;;;;;15.43;67.10;101997.25;5015056;28;20124;-46
2022/05/03 09:39:06;;;;;;;45.65;27.27;;;;;;;15.80;65.79;101990.09;5015204;28;20105;-45
2022/05/03 09:41:34;;;;;;;41.42;25.35;;;;;;;16.27;64.75;101998.13;4997354;28;20095;-46
2022/05/03 09:44:01;;;;;;;44.67;24.20;;;;;;;16.30;63.48;101995.94;5014843;28;20028;-46
2022/05/03 09:46:27;;;;;;;38.53;23.27;;;;;;;16.27;64.35;101990.31;5015032;28;20018;-46
2022/05/03 09:48:54;;;;;;;39.40;23.60;;;;;;;16.76;62.12;101987.47;4981068;28;20048;-45
2022/05/03 09:51:21;;;;;;;36.83;23.25;;;;;;;18.20;59.21;101991.91;5014630;28;20049;-46
2022/05/03 09:53:57;;;;;;;35.65;21.83;;;;;;;18.97;57.21;101980.63;5014952;28;20125;-46
2022/05/03 09:56:25;;;;;;;36.38;22.88;;;;;;;18.63;56.13;101983.44;5014898;28;20105;-45
2022/05/03 09:59:06;;;;;;;35.65;22.42;;;;;;;17.69;58.20;101981.41;5014611;28;20036;-45
2022/05/03 10:01:34;;;;;;;36.20;22.42;;;;;;;17.42;59.51;101984.06;5014914;28;20353;-47
2022/05/03 10:03:59;;;;;;;36.90;21.88;;;;;;;16.69;59.65;101984.81;5014522;28;20036;-46
2022/05/03 10:06:26;;;;;;;30.80;21.08;;;;;;;16.57;61.00;101989.03;5014674;28;20022;-46
2022/05/03 10:08:52;;;;;;;33.33;21.17;;;;;;;16.11;62.61;101989.66;5014921;28;20056;-47
2022/05/03 10:11:18;;;;;;;32.38;20.40;;;;;;;16.17;62.97;101991.50;5014087;28;20121;-46
2022/05/03 10:13:43;;;;;;;29.77;18.85;;;;;;;16.24;61.70;101986.28;5014211;28;20420;-45
2022/05/03 10:21:50;;;;;;;37.55;21.73;;;;;;;16.39;61.89;101981.72;5014988;28;20040;-47
2022/05/03 10:24:17;;;;;;;38.03;21.23;;;;;;;16.00;63.05;101987.59;5014464;28;20022;-46
2022/05/03 10:27:02;;;;;;;35.60;20.67;;;;;;;15.94;63.35;101988.34;5014029;28;20034;-46
2022/05/03 10:29:29;;;;;;;36.10;21.17;;;;;;;15.96;63.28;101997.59;5014008;28;20029;-46
2022/05/03 10:32:01;;;;;;;37.05;19.73;;;;;;;15.97;63.09;101985.38;4996414;28;20037;-46
2022/05/03 10:34:48;;;;;;;27.85;17.48;;;;;;;16.19;62.45;101980.84;5014019;28;20069;-46
2022/05/03 10:37:19;;;;;;;28.75;17.63;;;;;;;16.27;61.73;101975.47;5013859;28;20030;-48
2022/05/03 10:39:46;;;;;;;33.78;19.73;;;;;;;16.37;62.75;101982.91;5014249;28;20423;-46
2022/05/03 10:42:15;;;;;;;36.38;20.38;;;;;;;16.41;62.16;101984.16;5014099;28;20072;-46
2022/05/03 10:44:44;;;;;;;38.75;21.70;;;;;;;16.41;64.20;101984.16;4996288;28;20503;-47
2022/05/03 10:47:12;;;;;;;43.80;24.05;;;;;;;16.62;64.05;101980.59;5014101;28;20433;-47
2022/05/03 10:50:15;;;;;;;45.67;24.80;;;;;;;16.50;65.24;101990.00;5013565;28;20022;-47
2022/05/03 10:52:56;;;;;;;44.90;24.38;;;;;;;16.44;64.62;101983.75;5014059;28;20030;-46
2022/05/03 10:55:45;;;;;;;40.65;22.33;;;;;;;16.13;65.64;101990.25;5014006;28;20358;-46
2022/05/03 10:58:27;;;;;;;37.40;22.10;;;;;;;16.13;65.15;101990.25;4985746;28;20437;-46
2022/05/03 11:01:05;;;;;;;34.95;19.92;;;;;;;15.94;66.08;101983.13;5013874;28;20029;-46
2022/05/03 11:04:01;;;;;;;35.30;20.13;;;;;;;16.07;65.11;101980.59;5014164;28;20025;-46
2022/05/03 11:06:26;;;;;;;33.33;17.35;;;;;;;16.04;65.67;101988.00;5013108;28;20038;-46
2022/05/03 11:08:57;;;;;;;29.33;16.80;;;;;;;16.16;65.02;101979.44;5013954;28;20040;-45
2022/05/03 11:11:43;;;;;;;27.85;16.60;;;;;;;16.27;65.49;101974.66;5013680;28;20736;-45
2022/05/03 11:14:18;;;;;;;27.67;15.40;;;;;;;16.11;65.55;101979.22;5013927;28;20037;-45
2022/05/03 11:17:11;;;;;;;23.50;14.90;;;;;;;16.03;65.42;101984.59;5013152;28;20449;-46
2022/05/03 11:19:55;;;;;;;25.63;14.27;;;;;;;16.12;65.56;101980.84;5009972;28;20034;-46
2022/05/03 11:22:25;;;;;;;21.88;13.95;;;;;;;16.30;64.57;101977.69;5014179;28;20041;-45
2022/05/03 11:24:53;;;;;;;21.98;13.48;;;;;;;16.13;64.85;101977.22;5017733;28;20026;-46
2022/05/03 11:27:20;;;;;;;23.83;13.93;;;;;;;16.82;62.62;101967.59;5017618;28;20021;-46
2022/05/03 11:30:00;;;;;;;21.98;12.88;;;;;;;17.04;62.42;101973.44;5017369;28;20034;-45
2022/05/03 11:32:37;;;;;;;21.50;12.00;;;;;;;17.12;61.98;101971.44;5000191;28;20424;-46
2022/05/03 11:35:05;;;;;;;22.35;13.05;;;;;;;16.80;62.20;101972.19;5017582;28;20495;-46
2022/05/03 11:37:31;;;;;;;20.80;11.57;;;;;;;16.76;62.53;101970.97;5017291;28;20109;-46
2022/05/03 11:40:02;;;;;;;20.15;11.70;;;;;;;17.17;62.00;101970.81;5017460;28;20021;-47
2022/05/03 11:42:35;;;;;;;20.38;10.65;;;;;;;16.90;62.00;101977.84;5017439;28;20403;-46
2022/05/03 11:45:00;;;;;;;;;;;;;;;16.58;62.14;101968.94;5018007;28;20129;-49
2022/05/03 11:47:26;;;;;;;22.63;11.02;;;;;;;16.87;61.95;101973.81;5017000;28;19961;-46
2022/05/03 11:49:52;;;;;;;19.13;11.38;;;;;;;16.84;61.46;101973.44;4999449;28;20025;-47
2022/05/03 11:57:45;;;;;;;17.35;9.40;;;;;;;17.08;60.38;101967.59;5017295;28;20114;-47
2022/05/03 12:00:13;;;;;;;15.18;8.88;;;;;;;16.66;60.99;101971.38;5016225;28;20062;-46
2022/05/03 12:02:41;;;;;;;16.92;9.02;;;;;;;16.56;62.76;101973.53;5017008;28;20093;-47
2022/05/03 12:05:07;;;;;;;16.30;9.27;;;;;;;16.39;62.27;101970.47;5016729;28;20030;-51
2022/05/03 12:07:50;;;;;;;18.60;8.80;;;;;;;16.36;62.00;101968.28;5016936;28;20040;-47